Terminal Aerodrome Forecast (TAF)

TAF


TAF for:NVSC (Vanua Lava/Sola Airport) issued at 0430 UTC 27 Jun 2017
Text:TAF NVSC 270430Z 2706/2806 13012KT 9999 SCT020 INTER 2706/2712 9000 -SHRA BKN018
Forecast period:0600 to 0700 UTC 27 June 2017
Forecast type:FROM: standard forecast or significant change
Winds:from the SE (130 degrees) at 14 MPH (12 knots; 6.2 m/s)
Visibility:6 or more sm (10+ km)
Ceiling:at least 12,000 feet AGL
Clouds: scattered clouds at 2000 feet AGL
Text:BECMG 2707/2709 13005KT
Forecast period:0600 to 1200 UTC 27 June 2017
Forecast type:TEMPORARY: The following changes expected for less than half the time period
Visibility: 6 sm ( 9 km)
Ceiling:1800 feet AGL
Clouds: broken clouds at 1800 feet AGL
Weather:-SHRA (light rain showers)
Text:
Forecast period:0700 UTC 27 June 2017 to 0600 UTC 28 June 2017
Forecast type:BECOMING: Conditions expected to become as follows by 0900 UTC 27 June 2017
Winds:from the SE (130 degrees) at 6 MPH (5 knots; 2.6 m/s)
Visibility:6 or more sm (10+ km)
Ceiling:at least 12,000 feet AGL
Clouds: scattered clouds at 2000 feet AGL

TAF


TAF for:NVSG (Ambae/Longana Airport) issued at 0430 UTC 27 Jun 2017
Text:TAF NVSG 270430Z 2706/2806 13014KT 9999 SCT020 INTER 2706/2712 8000 SHRA FEW012 BKN018
Forecast period:0600 to 0700 UTC 27 June 2017
Forecast type:FROM: standard forecast or significant change
Winds:from the SE (130 degrees) at 16 MPH (14 knots; 7.2 m/s)
Visibility:6 or more sm (10+ km)
Ceiling:at least 12,000 feet AGL
Clouds: scattered clouds at 2000 feet AGL
Text:BECMG 2707/2709 13005KT
Forecast period:0600 to 1200 UTC 27 June 2017
Forecast type:TEMPORARY: The following changes expected for less than half the time period
Visibility: 5 sm ( 8 km)
Ceiling:1800 feet AGL
Clouds: few clouds at 1200 feet AGL, broken clouds at 1800 feet AGL
Weather:SHRA (rain showers)
Text:
Forecast period:0700 UTC 27 June 2017 to 0600 UTC 28 June 2017
Forecast type:BECOMING: Conditions expected to become as follows by 0900 UTC 27 June 2017
Winds:from the SE (130 degrees) at 6 MPH (5 knots; 2.6 m/s)
Visibility:6 or more sm (10+ km)
Ceiling:at least 12,000 feet AGL
Clouds: scattered clouds at 2000 feet AGL

TAF


TAF for:NVSS (Santo/Pekoa International Airport) issued at 0430 UTC 27 Jun 2017
Text:TAF NVSS 270430Z 2706/2806 13012KT 9999 SCT020 INTER 2706/2712 9000 -SHRA BKN018
Forecast period:0600 to 0700 UTC 27 June 2017
Forecast type:FROM: standard forecast or significant change
Winds:from the SE (130 degrees) at 14 MPH (12 knots; 6.2 m/s)
Visibility:6 or more sm (10+ km)
Ceiling:at least 12,000 feet AGL
Clouds: scattered clouds at 2000 feet AGL
Text:BECMG 2707/2709 13005KT
Forecast period:0600 to 1200 UTC 27 June 2017
Forecast type:TEMPORARY: The following changes expected for less than half the time period
Visibility: 6 sm ( 9 km)
Ceiling:1800 feet AGL
Clouds: broken clouds at 1800 feet AGL
Weather:-SHRA (light rain showers)
Text:
Forecast period:0700 UTC 27 June 2017 to 0600 UTC 28 June 2017
Forecast type:BECOMING: Conditions expected to become as follows by 0900 UTC 27 June 2017
Winds:from the SE (130 degrees) at 6 MPH (5 knots; 2.6 m/s)
Visibility:6 or more sm (10+ km)
Ceiling:at least 12,000 feet AGL
Clouds: scattered clouds at 2000 feet AGL

TAF


TAF for:NVSL (Malekula/Lamap Airport) issued at 0430 UTC 27 Jun 2017
Text:TAF NVSL 270430Z 2706/2806 12012KT 9999 SCT020 BKN040 INTER 2706/2712 9000 -SHRA FEW012 BKN018
Forecast period:0600 to 0700 UTC 27 June 2017
Forecast type:FROM: standard forecast or significant change
Winds:from the ESE (120 degrees) at 14 MPH (12 knots; 6.2 m/s)
Visibility:6 or more sm (10+ km)
Ceiling:4000 feet AGL
Clouds: scattered clouds at 2000 feet AGL, broken clouds at 4000 feet AGL
Text:BECMG 2707/2709 13005KT
Forecast period:0600 to 1200 UTC 27 June 2017
Forecast type:TEMPORARY: The following changes expected for less than half the time period
Visibility: 6 sm ( 9 km)
Ceiling:1800 feet AGL
Clouds: few clouds at 1200 feet AGL, broken clouds at 1800 feet AGL
Weather:-SHRA (light rain showers)
Text:
Forecast period:0700 UTC 27 June 2017 to 0600 UTC 28 June 2017
Forecast type:BECOMING: Conditions expected to become as follows by 0900 UTC 27 June 2017
Winds:from the SE (130 degrees) at 6 MPH (5 knots; 2.6 m/s)
Visibility:6 or more sm (10+ km)
Ceiling:4000 feet AGL
Clouds: scattered clouds at 2000 feet AGL, broken clouds at 4000 feet AGL

TAF


TAF for:NVVV (Efate/Bauerfield International Airport) issued at 0430 UTC 27 Jun 2017
Text:TAF NVVV 270430Z 2706/2806 13014KT 9999 SCT020 BKN040 INTER 2706/2712 9000 -SHRA BKN018
Forecast period:0600 to 0700 UTC 27 June 2017
Forecast type:FROM: standard forecast or significant change
Winds:from the SE (130 degrees) at 16 MPH (14 knots; 7.2 m/s)
Visibility:6 or more sm (10+ km)
Ceiling:4000 feet AGL
Clouds: scattered clouds at 2000 feet AGL, broken clouds at 4000 feet AGL
Text:BECMG 2707/2709 13005KT
Forecast period:0600 to 1200 UTC 27 June 2017
Forecast type:TEMPORARY: The following changes expected for less than half the time period
Visibility: 6 sm ( 9 km)
Ceiling:1800 feet AGL
Clouds: broken clouds at 1800 feet AGL
Weather:-SHRA (light rain showers)
Text:
Forecast period:0700 UTC 27 June 2017 to 0600 UTC 28 June 2017
Forecast type:BECOMING: Conditions expected to become as follows by 0900 UTC 27 June 2017
Winds:from the SE (130 degrees) at 6 MPH (5 knots; 2.6 m/s)
Visibility:6 or more sm (10+ km)
Ceiling:4000 feet AGL
Clouds: scattered clouds at 2000 feet AGL, broken clouds at 4000 feet AGL

TAF


TAF for:NVVW (Tanna/WhiteGrass International Airport) issued at 0430 UTC 27 Jun 2017
Text:TAF NVVW 270430Z 2706/2806 13010KT 9999 SCT020
Forecast period:0600 to 0700 UTC 27 June 2017
Forecast type:FROM: standard forecast or significant change
Winds:from the SE (130 degrees) at 12 MPH (10 knots; 5.1 m/s)
Visibility:6 or more sm (10+ km)
Ceiling:at least 12,000 feet AGL
Clouds: scattered clouds at 2000 feet AGL
Text:BECMG 2707/2709 13005KT
Forecast period:0700 UTC 27 June 2017 to 0600 UTC 28 June 2017
Forecast type:BECOMING: Conditions expected to become as follows by 0900 UTC 27 June 2017
Winds:from the SE (130 degrees) at 6 MPH (5 knots; 2.6 m/s)
Visibility:6 or more sm (10+ km)
Ceiling:at least 12,000 feet AGL
Clouds: scattered clouds at 2000 feet AGL

TAF


TAF for:NVVA (Aneityum/Anelcahuat Airport) issued at 0430 UTC 27 Jun 2017
Text:TAF NVVA 270430Z 2706/2806 13012KT 9999 SCT020
Forecast period:0600 to 0700 UTC 27 June 2017
Forecast type:FROM: standard forecast or significant change
Winds:from the SE (130 degrees) at 14 MPH (12 knots; 6.2 m/s)
Visibility:6 or more sm (10+ km)
Ceiling:at least 12,000 feet AGL
Clouds: scattered clouds at 2000 feet AGL
Text:BECMG 2707/2709 13005KT
Forecast period:0700 UTC 27 June 2017 to 0600 UTC 28 June 2017
Forecast type:BECOMING: Conditions expected to become as follows by 0900 UTC 27 June 2017
Winds:from the SE (130 degrees) at 6 MPH (5 knots; 2.6 m/s)
Visibility:6 or more sm (10+ km)
Ceiling:at least 12,000 feet AGL
Clouds: scattered clouds at 2000 feet AGL

TAF

ADDS TAF Data INFO
IDs: Format: Raw Decoded Include METARs

Data at: 0650 UTC 27 Jun 2017

TAF NVSC 270430Z 2706/2806 13012KT 9999 SCT020 INTER 2706/2712 9000 -SHRA BKN018
  BECMG 2707/2709 13005KT

 TAF NVSG 270430Z 2706/2806 13014KT 9999 SCT020 INTER 2706/2712 8000 SHRA FEW012 BKN018
  BECMG 2707/2709 13005KT

 TAF NVSS 270430Z 2706/2806 13012KT 9999 SCT020 INTER 2706/2712 9000 -SHRA BKN018
  BECMG 2707/2709 13005KT

 TAF NVSL 270430Z 2706/2806 12012KT 9999 SCT020 BKN040 INTER 2706/2712 9000 -SHRA FEW012 BKN018
  BECMG 2707/2709 13005KT

 TAF NVVV 270430Z 2706/2806 13014KT 9999 SCT020 BKN040 INTER 2706/2712 9000 -SHRA BKN018
  BECMG 2707/2709 13005KT

 TAF NVVW 270430Z 2706/2806 13010KT 9999 SCT020
  BECMG 2707/2709 13005KT

 TAF NVVA 270430Z 2706/2806 13012KT 9999 SCT020
  BECMG 2707/2709 13005KT